Fort Buchanan, PR

3:27 PM AST on December 25, 2014 (GMT -0400)
Reparto Metropolitano | Change Station
CLOSE
Current Station
Personal Weather Station
Location: San Juan, PR
Elevation: 36 ft
Nearby Weather Stations

Elev 36 ft 18.40 °N, 66.08 °W | Updated 13 seconds ago

Scattered Clouds
Scattered Clouds
82.8 °F
Feels Like 80 °F
N
8.0
Wind Variable Wind from NE
Gusts 18.0 mph

Today
High -- | Low -- °F
--% Chance of Precip.
Yesterday
High -- | Low -- °F
Precip. -- in
6:53 AM 5:55 PM
Waxing Crescent, 18% visible
Pressure 30.04 in
Visibility 10.0 miles
Clouds Scattered Clouds 2900 ft
Scattered Clouds 8000 ft
Heat Index 80 °F
Dew Point Not available.
Humidity Not available.
Rainfall 0.18 in
Snow Depth Not available.
UV 0.9 out of 12
Pollen Not available.
Air Quality Not available.
Flu Activity Not available.
METAR TJSJ 251856Z 06015KT 10SM SCT029 SCT080 28/22 A3004 RMK AO2 SLP172 VCSH S SW NW T02780222

More Conditions Fewer Conditions

Pressure 30.04 in
Visibility 10.0 miles
Clouds Scattered Clouds 2900 ft
Scattered Clouds 8000 ft
Heat Index 80 °F
Dew Point Not available.
Humidity Not available.
Rainfall 0.18 in
Snow Depth Not available.
UV 0.9 out of 12
Pollen Not available.
Air Quality Not available.
Flu Activity Not available.
METAR TJSJ 251856Z 06015KT 10SM SCT029 SCT080 28/22 A3004 RMK AO2 SLP172 VCSH S SW NW T02780222

More Conditions Fewer Conditions

10-Day Weather Forecast

Almanac

Astronomy

Dec. 25, 2014 Rise Set
Actual Time
Civil Twilight
Nautical Twilight
Astronomical Twilight
Moon
Length of Visible Light
Length of Day
Tomorrow will be .
, % of the Moon is Illuminated

Today's Extremes

State Highs State Lows

Community

WunderPhotos

Upload Photos

1,780,368 photos uploaded!

WunderBlogs® & News

Nearby

Air Quality

  Air Quality AQ Index Pollutant
Not available.

Snow Depth

Station Depth Elevation

Earthquake Activity

City Distance Mag. Time & Date
Minimum magnitude displayed is 2.5.

Coastal Water Temperatures

Place Temperature

Nearby Weather Stations